Gordon V.sr. — WDB8505 — position and weather

sailwx.info

Track history (hours):
 
Tides and Currents Weather Stations Pressure Air Temp Water Temp Dewpoint Dewpoint Depression Visibility Wind Speed Wind Dir Waves Ship Positions

Gordon V.sr.

Owner: B&G TOWING L.L.C., Lafitte, LA. More information available from US FCC via Universal Licensing System and Coast Guard Vessel Documentation Center.

Last reported at 2016-Dec-10 21:30 UTC. Time now 2016-Dec-11 08:09 UTC.
Position N 29°57' W 090°03'.

MMSI: 365910942.

Date/timePositionNaut miles runAvg speedWind from/ knotsBaromVisibWave heightAir tempDewpointWater temp
2016-Dec-10 21:30N 29°57' W 090°03'2 0.2
2016-Dec-10 11:24N 29°57' W 090°01'5 3.5
2016-Dec-10 10:04N 29°55' W 090°06'3 5.1
2016-Dec-10 09:32N 29°56' W 090°08'2 1.8
2016-Dec-10 08:27N 29°56' W 090°11'2 2.6
2016-Dec-10 07:33N 29°56' W 090°13'0 0.1
2016-Dec-10 06:33N 29°56' W 090°13'2 1.8
2016-Dec-10 05:32N 29°56' W 090°11'2 2.4
2016-Dec-10 04:33N 29°57' W 090°09'  
2016-Dec-05 05:15N 29°54' W 090°07'4 5.2
2016-Dec-05 04:33N 29°57' W 090°10'2 1.5
2016-Dec-05 03:33N 29°57' W 090°09'  
Track history (hours):
 
Tides and Currents Weather Stations Pressure Air Temp Water Temp Dewpoint Dewpoint Depression Visibility Wind Speed Wind Dir Waves Ship Positions

Gordon V.sr.

Owner: B&G TOWING L.L.C., Lafitte, LA. More information available from US FCC via Universal Licensing System and Coast Guard Vessel Documentation Center.

Last reported at 2016-Dec-10 21:30 UTC. Time now 2016-Dec-11 08:09 UTC.
Position N 29°57' W 090°03'.

MMSI: 365910942.

Date/timePositionNaut miles runAvg speedWind from/ knotsBaromVisibWave heightAir tempDewpointWater temp
2016-Dec-10 21:30N 29°57' W 090°03'2 0.2
2016-Dec-10 11:24N 29°57' W 090°01'5 3.5
2016-Dec-10 10:04N 29°55' W 090°06'3 5.1
2016-Dec-10 09:32N 29°56' W 090°08'2 1.8
2016-Dec-10 08:27N 29°56' W 090°11'2 2.6
2016-Dec-10 07:33N 29°56' W 090°13'0 0.1
2016-Dec-10 06:33N 29°56' W 090°13'2 1.8
2016-Dec-10 05:32N 29°56' W 090°11'2 2.4
2016-Dec-10 04:33N 29°57' W 090°09'  
2016-Dec-05 05:15N 29°54' W 090°07'4 5.2
2016-Dec-05 04:33N 29°57' W 090°10'2 1.5
2016-Dec-05 03:33N 29°57' W 090°09'  

Dump ship's entire track history